sensor_id;sensor_type;location;lat;lon;timestamp;temperature;humidity
45619;DHT22;31343;47.520;19.144;2022-09-21T00:00:38;9.90;99.90
45619;DHT22;31343;47.520;19.144;2022-09-21T00:03:04;10.00;99.90
45619;DHT22;31343;47.520;19.144;2022-09-21T00:05:30;9.90;99.90
45619;DHT22;31343;47.520;19.144;2022-09-21T00:08:00;10.00;99.90
45619;DHT22;31343;47.520;19.144;2022-09-21T00:10:27;10.00;99.90
45619;DHT22;31343;47.520;19.144;2022-09-21T00:12:52;10.10;99.90
45619;DHT22;31343;47.520;19.144;2022-09-21T00:15:18;10.10;99.90
45619;DHT22;31343;47.520;19.144;2022-09-21T00:17:44;10.10;99.90
45619;DHT22;31343;47.520;19.144;2022-09-21T00:20:10;10.20;99.90
45619;DHT22;31343;47.520;19.144;2022-09-21T00:22:35;10.20;99.90
45619;DHT22;31343;47.520;19.144;2022-09-21T00:25:01;10.20;99.90
45619;DHT22;31343;47.520;19.144;2022-09-21T00:27:29;10.20;99.90
45619;DHT22;31343;47.520;19.144;2022-09-21T00:29:56;10.10;99.90
45619;DHT22;31343;47.520;19.144;2022-09-21T00:32:22;10.20;99.90
45619;DHT22;31343;47.520;19.144;2022-09-21T00:34:51;10.20;99.90
45619;DHT22;31343;47.520;19.144;2022-09-21T00:37:17;10.20;99.90
45619;DHT22;31343;47.520;19.144;2022-09-21T00:39:43;10.20;99.90
45619;DHT22;31343;47.520;19.144;2022-09-21T00:42:12;10.20;99.90
45619;DHT22;31343;47.520;19.144;2022-09-21T00:44:39;10.20;99.90
45619;DHT22;31343;47.520;19.144;2022-09-21T00:47:12;10.20;99.90
45619;DHT22;31343;47.520;19.144;2022-09-21T00:49:39;10.30;99.90
45619;DHT22;31343;47.520;19.144;2022-09-21T00:52:06;10.20;99.90
45619;DHT22;31343;47.520;19.144;2022-09-21T00:54:59;10.20;99.90
45619;DHT22;31343;47.520;19.144;2022-09-21T00:57:19;10.30;99.90
45619;DHT22;31343;47.520;19.144;2022-09-21T00:59:46;10.20;99.90
45619;DHT22;31343;47.520;19.144;2022-09-21T01:02:14;10.10;99.90
45619;DHT22;31343;47.520;19.144;2022-09-21T01:04:40;10.10;99.90
45619;DHT22;31343;47.520;19.144;2022-09-21T01:07:07;10.10;99.90
45619;DHT22;31343;47.520;19.144;2022-09-21T01:09:36;10.10;99.90
45619;DHT22;31343;47.520;19.144;2022-09-21T01:12:10;10.10;99.90
45619;DHT22;31343;47.520;19.144;2022-09-21T01:14:57;10.20;99.90
45619;DHT22;31343;47.520;19.144;2022-09-21T01:23:18;10.10;99.90
45619;DHT22;31343;47.520;19.144;2022-09-21T01:26:08;10.20;99.90
45619;DHT22;31343;47.520;19.144;2022-09-21T01:28:20;10.20;99.90
45619;DHT22;31343;47.520;19.144;2022-09-21T01:30:49;10.30;99.90
45619;DHT22;31343;47.520;19.144;2022-09-21T01:33:20;10.20;99.90
45619;DHT22;31343;47.520;19.144;2022-09-21T01:35:48;10.20;99.90
45619;DHT22;31343;47.520;19.144;2022-09-21T01:38:16;10.30;99.90
45619;DHT22;31343;47.520;19.144;2022-09-21T01:40:45;10.30;99.90
45619;DHT22;31343;47.520;19.144;2022-09-21T01:43:17;10.20;99.90
45619;DHT22;31343;47.520;19.144;2022-09-21T01:45:45;10.20;99.90
45619;DHT22;31343;47.520;19.144;2022-09-21T01:48:12;10.10;99.90
45619;DHT22;31343;47.520;19.144;2022-09-21T01:50:43;10.10;99.90
45619;DHT22;31343;47.520;19.144;2022-09-21T01:53:14;10.10;99.90
45619;DHT22;31343;47.520;19.144;2022-09-21T01:55:43;10.20;99.90
45619;DHT22;31343;47.520;19.144;2022-09-21T01:58:13;10.10;99.90
45619;DHT22;31343;47.520;19.144;2022-09-21T02:00:39;10.10;99.90
45619;DHT22;31343;47.520;19.144;2022-09-21T02:03:11;10.10;99.90
45619;DHT22;31343;47.520;19.144;2022-09-21T02:05:38;10.10;99.90
45619;DHT22;31343;47.520;19.144;2022-09-21T02:08:05;10.10;99.90
45619;DHT22;31343;47.520;19.144;2022-09-21T02:10:35;10.10;99.90
45619;DHT22;31343;47.520;19.144;2022-09-21T02:13:04;10.10;99.90
45619;DHT22;31343;47.520;19.144;2022-09-21T02:16:05;10.20;99.90
45619;DHT22;31343;47.520;19.144;2022-09-21T02:18:20;10.10;99.90
45619;DHT22;31343;47.520;19.144;2022-09-21T02:20:51;10.10;99.90
45619;DHT22;31343;47.520;19.144;2022-09-21T02:23:25;10.10;99.90
45619;DHT22;31343;47.520;19.144;2022-09-21T02:26:12;10.20;99.90
45619;DHT22;31343;47.520;19.144;2022-09-21T02:28:46;10.20;99.90
45619;DHT22;31343;47.520;19.144;2022-09-21T02:31:20;10.10;99.90
45619;DHT22;31343;47.520;19.144;2022-09-21T02:34:13;10.20;99.90
45619;DHT22;31343;47.520;19.144;2022-09-21T02:39:34;10.20;99.90
45619;DHT22;31343;47.520;19.144;2022-09-21T02:42:38;10.10;99.90
45619;DHT22;31343;47.520;19.144;2022-09-21T02:47:47;10.20;99.90
45619;DHT22;31343;47.520;19.144;2022-09-21T02:50:23;10.10;99.90
45619;DHT22;31343;47.520;19.144;2022-09-21T02:52:50;10.10;99.90
45619;DHT22;31343;47.520;19.144;2022-09-21T02:55:18;10.10;99.90
45619;DHT22;31343;47.520;19.144;2022-09-21T02:57:44;10.10;99.90
45619;DHT22;31343;47.520;19.144;2022-09-21T03:00:11;10.10;99.90
45619;DHT22;31343;47.520;19.144;2022-09-21T03:02:39;10.10;99.90
45619;DHT22;31343;47.520;19.144;2022-09-21T03:05:05;10.20;99.90
45619;DHT22;31343;47.520;19.144;2022-09-21T03:07:31;10.20;99.90
45619;DHT22;31343;47.520;19.144;2022-09-21T03:09:57;10.10;99.90
45619;DHT22;31343;47.520;19.144;2022-09-21T03:12:22;10.20;99.90
45619;DHT22;31343;47.520;19.144;2022-09-21T03:14:48;10.20;99.90
45619;DHT22;31343;47.520;19.144;2022-09-21T03:17:15;10.20;99.90
45619;DHT22;31343;47.520;19.144;2022-09-21T03:19:41;10.10;99.90
45619;DHT22;31343;47.520;19.144;2022-09-21T03:22:08;10.20;99.90
45619;DHT22;31343;47.520;19.144;2022-09-21T03:24:33;10.20;99.90
45619;DHT22;31343;47.520;19.144;2022-09-21T03:27:15;10.20;99.90
45619;DHT22;31343;47.520;19.144;2022-09-21T03:29:40;10.20;99.90
45619;DHT22;31343;47.520;19.144;2022-09-21T03:32:07;10.30;99.90
45619;DHT22;31343;47.520;19.144;2022-09-21T03:34:33;10.20;99.90
45619;DHT22;31343;47.520;19.144;2022-09-21T03:36:59;10.20;99.90
45619;DHT22;31343;47.520;19.144;2022-09-21T03:39:25;10.20;99.90
45619;DHT22;31343;47.520;19.144;2022-09-21T03:41:51;10.20;99.90
45619;DHT22;31343;47.520;19.144;2022-09-21T03:44:16;10.10;99.90
45619;DHT22;31343;47.520;19.144;2022-09-21T03:46:42;10.20;99.90
45619;DHT22;31343;47.520;19.144;2022-09-21T03:49:08;10.20;99.90
45619;DHT22;31343;47.520;19.144;2022-09-21T03:51:34;10.20;99.90
45619;DHT22;31343;47.520;19.144;2022-09-21T03:53:59;10.20;99.90
45619;DHT22;31343;47.520;19.144;2022-09-21T03:56:25;10.20;99.90
45619;DHT22;31343;47.520;19.144;2022-09-21T03:58:51;10.20;99.90
45619;DHT22;31343;47.520;19.144;2022-09-21T04:01:16;10.20;99.90
45619;DHT22;31343;47.520;19.144;2022-09-21T04:03:42;10.30;99.90
45619;DHT22;31343;47.520;19.144;2022-09-21T04:06:08;10.30;99.90
45619;DHT22;31343;47.520;19.144;2022-09-21T04:08:34;10.30;99.90
45619;DHT22;31343;47.520;19.144;2022-09-21T04:10:59;10.20;99.90
45619;DHT22;31343;47.520;19.144;2022-09-21T04:13:25;10.20;99.90
45619;DHT22;31343;47.520;19.144;2022-09-21T04:15:50;10.20;99.90
45619;DHT22;31343;47.520;19.144;2022-09-21T04:18:16;10.10;99.90
45619;DHT22;31343;47.520;19.144;2022-09-21T04:20:41;10.10;99.90
45619;DHT22;31343;47.520;19.144;2022-09-21T04:23:07;10.10;99.90
45619;DHT22;31343;47.520;19.144;2022-09-21T04:25:34;10.10;99.90
45619;DHT22;31343;47.520;19.144;2022-09-21T04:28:00;10.00;99.90
45619;DHT22;31343;47.520;19.144;2022-09-21T04:30:26;10.00;99.90
45619;DHT22;31343;47.520;19.144;2022-09-21T04:32:51;10.00;99.90
45619;DHT22;31343;47.520;19.144;2022-09-21T04:35:17;10.00;99.90
45619;DHT22;31343;47.520;19.144;2022-09-21T04:37:43;10.00;99.90
45619;DHT22;31343;47.520;19.144;2022-09-21T04:40:08;10.00;99.90
45619;DHT22;31343;47.520;19.144;2022-09-21T04:42:34;10.00;99.90
45619;DHT22;31343;47.520;19.144;2022-09-21T04:44:59;10.00;99.90
45619;DHT22;31343;47.520;19.144;2022-09-21T04:47:25;10.10;99.90
45619;DHT22;31343;47.520;19.144;2022-09-21T04:49:53;10.00;99.90
45619;DHT22;31343;47.520;19.144;2022-09-21T04:52:19;10.00;99.90
45619;DHT22;31343;47.520;19.144;2022-09-21T04:54:44;10.10;99.90
45619;DHT22;31343;47.520;19.144;2022-09-21T04:57:11;10.00;99.90
45619;DHT22;31343;47.520;19.144;2022-09-21T04:59:36;10.00;99.90
45619;DHT22;31343;47.520;19.144;2022-09-21T05:02:02;10.00;99.90
45619;DHT22;31343;47.520;19.144;2022-09-21T05:04:27;10.00;99.90
45619;DHT22;31343;47.520;19.144;2022-09-21T05:06:54;10.00;99.90
45619;DHT22;31343;47.520;19.144;2022-09-21T05:09:19;10.00;99.90
45619;DHT22;31343;47.520;19.144;2022-09-21T05:12:03;10.00;99.90
45619;DHT22;31343;47.520;19.144;2022-09-21T05:14:29;10.00;99.90
45619;DHT22;31343;47.520;19.144;2022-09-21T05:16:54;10.10;99.90
45619;DHT22;31343;47.520;19.144;2022-09-21T05:19:20;10.20;99.90
45619;DHT22;31343;47.520;19.144;2022-09-21T05:21:47;10.20;99.90
45619;DHT22;31343;47.520;19.144;2022-09-21T05:24:12;10.30;99.90
45619;DHT22;31343;47.520;19.144;2022-09-21T05:26:38;10.30;99.90
45619;DHT22;31343;47.520;19.144;2022-09-21T05:29:03;10.40;99.90
45619;DHT22;31343;47.520;19.144;2022-09-21T05:34:30;10.60;99.90
45619;DHT22;31343;47.520;19.144;2022-09-21T05:39:23;11.30;99.90
45619;DHT22;31343;47.520;19.144;2022-09-21T05:41:49;12.20;99.90
45619;DHT22;31343;47.520;19.144;2022-09-21T05:44:15;13.30;99.90
45619;DHT22;31343;47.520;19.144;2022-09-21T05:46:42;14.30;99.90
45619;DHT22;31343;47.520;19.144;2022-09-21T05:49:16;15.60;99.90
45619;DHT22;31343;47.520;19.144;2022-09-21T05:51:49;16.30;99.90
45619;DHT22;31343;47.520;19.144;2022-09-21T05:57:13;18.30;98.10
45619;DHT22;31343;47.520;19.144;2022-09-21T05:59:42;18.90;96.80
45619;DHT22;31343;47.520;19.144;2022-09-21T06:04:46;20.10;94.20
45619;DHT22;31343;47.520;19.144;2022-09-21T06:07:13;19.40;93.70
45619;DHT22;31343;47.520;19.144;2022-09-21T06:09:39;18.10;95.20
45619;DHT22;31343;47.520;19.144;2022-09-21T06:12:04;17.30;96.50
45619;DHT22;31343;47.520;19.144;2022-09-21T06:14:30;16.60;97.50
45619;DHT22;31343;47.520;19.144;2022-09-21T06:16:56;15.70;99.30
45619;DHT22;31343;47.520;19.144;2022-09-21T06:19:22;15.60;99.90
45619;DHT22;31343;47.520;19.144;2022-09-21T06:21:47;16.50;99.40
45619;DHT22;31343;47.520;19.144;2022-09-21T06:24:13;17.80;98.00
45619;DHT22;31343;47.520;19.144;2022-09-21T06:26:38;18.50;96.20
45619;DHT22;31343;47.520;19.144;2022-09-21T06:29:04;19.00;95.10
45619;DHT22;31343;47.520;19.144;2022-09-21T06:31:29;20.10;94.10
45619;DHT22;31343;47.520;19.144;2022-09-21T06:33:55;21.10;92.10
45619;DHT22;31343;47.520;19.144;2022-09-21T06:36:21;21.40;91.70
45619;DHT22;31343;47.520;19.144;2022-09-21T06:38:46;22.20;90.90
45619;DHT22;31343;47.520;19.144;2022-09-21T06:41:12;22.20;90.00
45619;DHT22;31343;47.520;19.144;2022-09-21T06:43:38;22.50;89.40
45619;DHT22;31343;47.520;19.144;2022-09-21T06:46:04;22.70;86.90
45619;DHT22;31343;47.520;19.144;2022-09-21T06:48:30;22.60;87.70
45619;DHT22;31343;47.520;19.144;2022-09-21T06:50:57;22.90;87.00
45619;DHT22;31343;47.520;19.144;2022-09-21T06:53:24;23.20;84.20
45619;DHT22;31343;47.520;19.144;2022-09-21T06:55:49;22.50;85.30
45619;DHT22;31343;47.520;19.144;2022-09-21T06:58:15;22.00;85.80
45619;DHT22;31343;47.520;19.144;2022-09-21T07:00:40;21.50;87.00
45619;DHT22;31343;47.520;19.144;2022-09-21T07:03:08;21.60;87.50
45619;DHT22;31343;47.520;19.144;2022-09-21T07:05:34;22.10;87.10
45619;DHT22;31343;47.520;19.144;2022-09-21T07:08:00;22.70;84.20
45619;DHT22;31343;47.520;19.144;2022-09-21T07:10:25;23.10;85.10
45619;DHT22;31343;47.520;19.144;2022-09-21T07:12:51;23.20;83.80
45619;DHT22;31343;47.520;19.144;2022-09-21T07:15:17;23.00;83.60
45619;DHT22;31343;47.520;19.144;2022-09-21T07:17:43;22.90;84.20
45619;DHT22;31343;47.520;19.144;2022-09-21T07:20:09;22.80;83.30
45619;DHT22;31343;47.520;19.144;2022-09-21T07:22:35;22.60;84.10
45619;DHT22;31343;47.520;19.144;2022-09-21T07:25:01;22.30;84.80
45619;DHT22;31343;47.520;19.144;2022-09-21T07:27:27;21.90;86.90
45619;DHT22;31343;47.520;19.144;2022-09-21T07:29:53;22.10;85.70
45619;DHT22;31343;47.520;19.144;2022-09-21T07:32:18;22.00;85.40
45619;DHT22;31343;47.520;19.144;2022-09-21T07:34:44;22.20;85.80
45619;DHT22;31343;47.520;19.144;2022-09-21T07:37:11;21.80;86.70
45619;DHT22;31343;47.520;19.144;2022-09-21T07:39:36;21.60;86.30
45619;DHT22;31343;47.520;19.144;2022-09-21T07:42:03;21.20;86.80
45619;DHT22;31343;47.520;19.144;2022-09-21T07:44:29;21.60;88.30
45619;DHT22;31343;47.520;19.144;2022-09-21T07:46:55;21.60;87.10
45619;DHT22;31343;47.520;19.144;2022-09-21T07:49:20;22.00;88.10
45619;DHT22;31343;47.520;19.144;2022-09-21T07:51:46;22.10;85.90
45619;DHT22;31343;47.520;19.144;2022-09-21T07:54:11;22.30;86.40
45619;DHT22;31343;47.520;19.144;2022-09-21T07:56:37;22.60;84.70
45619;DHT22;31343;47.520;19.144;2022-09-21T07:59:03;23.30;83.90
45619;DHT22;31343;47.520;19.144;2022-09-21T08:01:33;23.50;83.60
45619;DHT22;31343;47.520;19.144;2022-09-21T08:03:59;24.20;82.90
45619;DHT22;31343;47.520;19.144;2022-09-21T08:06:26;24.50;81.80
45619;DHT22;31343;47.520;19.144;2022-09-21T08:08:52;24.60;80.80
45619;DHT22;31343;47.520;19.144;2022-09-21T08:11:19;24.50;80.80
45619;DHT22;31343;47.520;19.144;2022-09-21T08:13:46;24.60;80.60
45619;DHT22;31343;47.520;19.144;2022-09-21T08:16:13;24.70;80.80
45619;DHT22;31343;47.520;19.144;2022-09-21T08:18:39;24.30;80.60
45619;DHT22;31343;47.520;19.144;2022-09-21T08:21:06;23.40;81.70
45619;DHT22;31343;47.520;19.144;2022-09-21T08:23:31;23.30;82.30
45619;DHT22;31343;47.520;19.144;2022-09-21T08:25:58;22.80;83.10
45619;DHT22;31343;47.520;19.144;2022-09-21T08:28:24;21.60;84.60
45619;DHT22;31343;47.520;19.144;2022-09-21T08:30:50;21.00;87.10
45619;DHT22;31343;47.520;19.144;2022-09-21T08:33:16;20.80;89.40
45619;DHT22;31343;47.520;19.144;2022-09-21T08:35:41;20.40;89.70
45619;DHT22;31343;47.520;19.144;2022-09-21T08:38:07;19.50;91.30
45619;DHT22;31343;47.520;19.144;2022-09-21T08:40:32;19.00;91.80
45619;DHT22;31343;47.520;19.144;2022-09-21T08:43:09;18.60;92.60
45619;DHT22;31343;47.520;19.144;2022-09-21T08:45:38;18.40;93.60
45619;DHT22;31343;47.520;19.144;2022-09-21T08:48:08;18.50;93.50
45619;DHT22;31343;47.520;19.144;2022-09-21T08:50:39;18.70;93.50
45619;DHT22;31343;47.520;19.144;2022-09-21T08:53:08;18.50;93.20
45619;DHT22;31343;47.520;19.144;2022-09-21T08:55:35;18.40;93.30
45619;DHT22;31343;47.520;19.144;2022-09-21T08:58:01;18.10;94.00
45619;DHT22;31343;47.520;19.144;2022-09-21T09:00:26;17.90;94.50
45619;DHT22;31343;47.520;19.144;2022-09-21T09:03:07;18.00;94.70
45619;DHT22;31343;47.520;19.144;2022-09-21T09:15:44;18.70;92.60
45619;DHT22;31343;47.520;19.144;2022-09-21T09:20:38;18.50;94.50
45619;DHT22;31343;47.520;19.144;2022-09-21T09:23:05;18.50;94.30
45619;DHT22;31343;47.520;19.144;2022-09-21T09:25:37;18.20;94.30
45619;DHT22;31343;47.520;19.144;2022-09-21T09:28:12;18.10;94.80
45619;DHT22;31343;47.520;19.144;2022-09-21T09:30:40;18.10;95.30
45619;DHT22;31343;47.520;19.144;2022-09-21T09:33:09;18.10;95.30
45619;DHT22;31343;47.520;19.144;2022-09-21T09:35:39;18.00;95.30
45619;DHT22;31343;47.520;19.144;2022-09-21T09:38:18;18.00;95.30
45619;DHT22;31343;47.520;19.144;2022-09-21T09:40:57;18.20;95.70
45619;DHT22;31343;47.520;19.144;2022-09-21T09:46:02;18.40;94.90
45619;DHT22;31343;47.520;19.144;2022-09-21T09:48:42;18.20;95.00
45619;DHT22;31343;47.520;19.144;2022-09-21T09:51:11;18.20;95.00
45619;DHT22;31343;47.520;19.144;2022-09-21T09:53:37;18.00;94.60
45619;DHT22;31343;47.520;19.144;2022-09-21T09:56:02;17.90;95.10
45619;DHT22;31343;47.520;19.144;2022-09-21T10:00:54;18.20;95.50
45619;DHT22;31343;47.520;19.144;2022-09-21T10:03:21;18.00;95.00
45619;DHT22;31343;47.520;19.144;2022-09-21T10:05:47;18.00;95.30
45619;DHT22;31343;47.520;19.144;2022-09-21T10:08:29;17.80;95.80
45619;DHT22;31343;47.520;19.144;2022-09-21T10:10:55;17.90;95.70
45619;DHT22;31343;47.520;19.144;2022-09-21T10:13:28;18.10;95.50
45619;DHT22;31343;47.520;19.144;2022-09-21T10:16:01;18.00;95.30
45619;DHT22;31343;47.520;19.144;2022-09-21T10:18:45;18.00;95.30
45619;DHT22;31343;47.520;19.144;2022-09-21T10:23:41;18.30;95.30
45619;DHT22;31343;47.520;19.144;2022-09-21T10:26:11;18.30;94.70
45619;DHT22;31343;47.520;19.144;2022-09-21T10:28:37;18.60;93.80
45619;DHT22;31343;47.520;19.144;2022-09-21T10:31:23;18.60;93.60
45619;DHT22;31343;47.520;19.144;2022-09-21T10:33:54;18.80;93.30
45619;DHT22;31343;47.520;19.144;2022-09-21T10:36:25;19.00;94.40
45619;DHT22;31343;47.520;19.144;2022-09-21T10:38:51;19.10;92.10
45619;DHT22;31343;47.520;19.144;2022-09-21T10:41:17;19.00;91.70
45619;DHT22;31343;47.520;19.144;2022-09-21T10:43:43;19.30;92.40
45619;DHT22;31343;47.520;19.144;2022-09-21T10:46:09;19.40;92.20
45619;DHT22;31343;47.520;19.144;2022-09-21T10:48:34;19.30;91.50
45619;DHT22;31343;47.520;19.144;2022-09-21T10:51:00;19.10;91.50
45619;DHT22;31343;47.520;19.144;2022-09-21T10:53:30;19.00;91.50
45619;DHT22;31343;47.520;19.144;2022-09-21T10:56:00;19.10;91.60
45619;DHT22;31343;47.520;19.144;2022-09-21T10:58:27;19.30;91.30
45619;DHT22;31343;47.520;19.144;2022-09-21T11:00:53;19.30;91.60
45619;DHT22;31343;47.520;19.144;2022-09-21T11:03:54;19.30;91.90
45619;DHT22;31343;47.520;19.144;2022-09-21T11:06:28;19.40;92.30
45619;DHT22;31343;47.520;19.144;2022-09-21T11:14:34;19.50;91.30
45619;DHT22;31343;47.520;19.144;2022-09-21T11:19:35;19.80;91.00
45619;DHT22;31343;47.520;19.144;2022-09-21T11:24:36;22.50;84.20
45619;DHT22;31343;47.520;19.144;2022-09-21T11:27:14;23.50;83.60
45619;DHT22;31343;47.520;19.144;2022-09-21T11:37:50;21.60;84.50
45619;DHT22;31343;47.520;19.144;2022-09-21T11:43:05;21.00;85.50
45619;DHT22;31343;47.520;19.144;2022-09-21T11:51:04;20.80;85.20
45619;DHT22;31343;47.520;19.144;2022-09-21T11:58:57;20.70;85.20
45619;DHT22;31343;47.520;19.144;2022-09-21T12:01:39;20.80;86.20
45619;DHT22;31343;47.520;19.144;2022-09-21T12:09:07;24.70;77.60
45619;DHT22;31343;47.520;19.144;2022-09-21T12:14:27;25.60;73.90
45619;DHT22;31343;47.520;19.144;2022-09-21T12:19:29;26.20;72.20
45619;DHT22;31343;47.520;19.144;2022-09-21T12:22:10;27.30;71.00
45619;DHT22;31343;47.520;19.144;2022-09-21T12:24:44;26.90;69.30
45619;DHT22;31343;47.520;19.144;2022-09-21T12:27:24;26.70;70.00
45619;DHT22;31343;47.520;19.144;2022-09-21T12:29:52;27.20;68.50
45619;DHT22;31343;47.520;19.144;2022-09-21T12:34:58;26.80;68.40
45619;DHT22;31343;47.520;19.144;2022-09-21T12:37:29;26.70;67.10
45619;DHT22;31343;47.520;19.144;2022-09-21T12:40:06;26.00;68.90
45619;DHT22;31343;47.520;19.144;2022-09-21T12:52:58;22.10;77.70
45619;DHT22;31343;47.520;19.144;2022-09-21T12:55:38;22.50;78.90
45619;DHT22;31343;47.520;19.144;2022-09-21T12:58:15;23.60;76.50
45619;DHT22;31343;47.520;19.144;2022-09-21T13:00:59;24.70;73.90
45619;DHT22;31343;47.520;19.144;2022-09-21T13:03:29;24.40;73.30
45619;DHT22;31343;47.520;19.144;2022-09-21T13:08:25;24.60;73.00
45619;DHT22;31343;47.520;19.144;2022-09-21T13:15:50;24.00;75.30
45619;DHT22;31343;47.520;19.144;2022-09-21T13:18:38;24.50;72.90
45619;DHT22;31343;47.520;19.144;2022-09-21T13:21:17;24.50;72.80
45619;DHT22;31343;47.520;19.144;2022-09-21T13:23:43;24.30;73.50
45619;DHT22;31343;47.520;19.144;2022-09-21T13:26:15;24.00;73.60
45619;DHT22;31343;47.520;19.144;2022-09-21T13:31:28;23.10;74.90
45619;DHT22;31343;47.520;19.144;2022-09-21T13:39:42;22.10;76.70
45619;DHT22;31343;47.520;19.144;2022-09-21T13:47:44;21.50;78.50
45619;DHT22;31343;47.520;19.144;2022-09-21T13:50:18;21.50;79.10
45619;DHT22;31343;47.520;19.144;2022-09-21T13:52:46;21.40;80.20
45619;DHT22;31343;47.520;19.144;2022-09-21T13:57:46;21.10;81.40
45619;DHT22;31343;47.520;19.144;2022-09-21T14:02:38;21.20;81.10
45619;DHT22;31343;47.520;19.144;2022-09-21T14:07:33;21.20;80.10
45619;DHT22;31343;47.520;19.144;2022-09-21T14:10:00;21.10;79.60
45619;DHT22;31343;47.520;19.144;2022-09-21T14:12:26;20.90;80.40
45619;DHT22;31343;47.520;19.144;2022-09-21T14:17:40;20.50;76.90
45619;DHT22;31343;47.520;19.144;2022-09-21T14:23:09;20.30;78.30
45619;DHT22;31343;47.520;19.144;2022-09-21T14:25:51;20.20;78.60
45619;DHT22;31343;47.520;19.144;2022-09-21T14:28:19;20.20;79.00
45619;DHT22;31343;47.520;19.144;2022-09-21T14:30:52;20.10;78.80
45619;DHT22;31343;47.520;19.144;2022-09-21T14:33:23;20.00;79.10
45619;DHT22;31343;47.520;19.144;2022-09-21T14:35:51;19.90;80.40
45619;DHT22;31343;47.520;19.144;2022-09-21T14:38:18;19.90;81.20
45619;DHT22;31343;47.520;19.144;2022-09-21T14:40:48;19.80;81.60
45619;DHT22;31343;47.520;19.144;2022-09-21T14:43:16;19.80;81.10
45619;DHT22;31343;47.520;19.144;2022-09-21T14:48:46;19.60;81.20
45619;DHT22;31343;47.520;19.144;2022-09-21T14:51:06;19.60;82.20
45619;DHT22;31343;47.520;19.144;2022-09-21T14:56:23;19.60;82.40
45619;DHT22;31343;47.520;19.144;2022-09-21T15:06:47;19.50;82.70
45619;DHT22;31343;47.520;19.144;2022-09-21T15:12:53;19.50;82.50
45619;DHT22;31343;47.520;19.144;2022-09-21T15:15:34;19.50;81.70
45619;DHT22;31343;47.520;19.144;2022-09-21T15:18:23;19.40;82.60
45619;DHT22;31343;47.520;19.144;2022-09-21T15:20:59;19.30;82.80
45619;DHT22;31343;47.520;19.144;2022-09-21T15:23:33;19.20;83.00
45619;DHT22;31343;47.520;19.144;2022-09-21T15:26:00;19.10;83.10
45619;DHT22;31343;47.520;19.144;2022-09-21T15:28:42;19.00;83.00
45619;DHT22;31343;47.520;19.144;2022-09-21T15:31:13;18.80;82.40
45619;DHT22;31343;47.520;19.144;2022-09-21T15:33:39;18.60;83.10
45619;DHT22;31343;47.520;19.144;2022-09-21T15:36:06;18.50;83.30
45619;DHT22;31343;47.520;19.144;2022-09-21T15:38:34;18.50;83.20
45619;DHT22;31343;47.520;19.144;2022-09-21T15:41:00;18.40;83.50
45619;DHT22;31343;47.520;19.144;2022-09-21T15:43:26;18.40;83.80
45619;DHT22;31343;47.520;19.144;2022-09-21T15:46:10;18.30;84.10
45619;DHT22;31343;47.520;19.144;2022-09-21T15:48:39;18.20;84.70
45619;DHT22;31343;47.520;19.144;2022-09-21T15:51:23;18.10;85.20
45619;DHT22;31343;47.520;19.144;2022-09-21T15:53:52;18.00;85.00
45619;DHT22;31343;47.520;19.144;2022-09-21T15:56:21;17.90;85.60
45619;DHT22;31343;47.520;19.144;2022-09-21T15:58:47;17.80;85.60
45619;DHT22;31343;47.520;19.144;2022-09-21T16:01:18;17.80;86.00
45619;DHT22;31343;47.520;19.144;2022-09-21T16:03:46;17.70;85.70
45619;DHT22;31343;47.520;19.144;2022-09-21T16:06:58;17.70;85.30
45619;DHT22;31343;47.520;19.144;2022-09-21T16:08:58;17.60;86.30
45619;DHT22;31343;47.520;19.144;2022-09-21T16:14:03;17.50;85.80
45619;DHT22;31343;47.520;19.144;2022-09-21T16:17:18;17.40;85.90
45619;DHT22;31343;47.520;19.144;2022-09-21T16:24:56;17.10;86.00
45619;DHT22;31343;47.520;19.144;2022-09-21T16:27:27;17.00;86.90
45619;DHT22;31343;47.520;19.144;2022-09-21T16:29:54;17.00;87.40
45619;DHT22;31343;47.520;19.144;2022-09-21T16:32:26;16.90;87.10
45619;DHT22;31343;47.520;19.144;2022-09-21T16:34:53;16.80;88.00
45619;DHT22;31343;47.520;19.144;2022-09-21T16:37:29;16.70;89.00
45619;DHT22;31343;47.520;19.144;2022-09-21T16:39:55;16.60;89.40
45619;DHT22;31343;47.520;19.144;2022-09-21T16:42:21;16.50;89.60
45619;DHT22;31343;47.520;19.144;2022-09-21T16:44:48;16.50;90.40
45619;DHT22;31343;47.520;19.144;2022-09-21T16:47:14;16.40;90.30
45619;DHT22;31343;47.520;19.144;2022-09-21T16:49:40;16.30;90.60
45619;DHT22;31343;47.520;19.144;2022-09-21T16:52:06;16.30;90.80
45619;DHT22;31343;47.520;19.144;2022-09-21T16:54:32;16.20;91.00
45619;DHT22;31343;47.520;19.144;2022-09-21T16:56:59;16.20;91.50
45619;DHT22;31343;47.520;19.144;2022-09-21T16:59:25;16.10;91.80
45619;DHT22;31343;47.520;19.144;2022-09-21T17:01:52;16.10;92.00
45619;DHT22;31343;47.520;19.144;2022-09-21T17:04:19;16.00;92.10
45619;DHT22;31343;47.520;19.144;2022-09-21T17:06:44;16.00;92.30
45619;DHT22;31343;47.520;19.144;2022-09-21T17:09:21;16.00;92.50
45619;DHT22;31343;47.520;19.144;2022-09-21T17:11:47;15.90;92.50
45619;DHT22;31343;47.520;19.144;2022-09-21T17:14:14;15.80;93.00
45619;DHT22;31343;47.520;19.144;2022-09-21T17:16:42;15.80;92.90
45619;DHT22;31343;47.520;19.144;2022-09-21T17:19:08;15.80;92.90
45619;DHT22;31343;47.520;19.144;2022-09-21T17:21:34;15.70;93.00
45619;DHT22;31343;47.520;19.144;2022-09-21T17:24:00;15.60;93.30
45619;DHT22;31343;47.520;19.144;2022-09-21T17:26:25;15.60;93.50
45619;DHT22;31343;47.520;19.144;2022-09-21T17:28:52;15.60;93.60
45619;DHT22;31343;47.520;19.144;2022-09-21T17:31:18;15.50;93.60
45619;DHT22;31343;47.520;19.144;2022-09-21T17:33:45;15.50;93.80
45619;DHT22;31343;47.520;19.144;2022-09-21T17:36:12;15.50;94.10
45619;DHT22;31343;47.520;19.144;2022-09-21T17:38:39;15.30;94.30
45619;DHT22;31343;47.520;19.144;2022-09-21T17:43:52;15.20;94.90
45619;DHT22;31343;47.520;19.144;2022-09-21T17:46:22;15.20;95.30
45619;DHT22;31343;47.520;19.144;2022-09-21T17:48:49;15.20;95.70
45619;DHT22;31343;47.520;19.144;2022-09-21T17:51:15;15.20;95.50
45619;DHT22;31343;47.520;19.144;2022-09-21T17:54:00;15.20;95.80
45619;DHT22;31343;47.520;19.144;2022-09-21T17:59:02;15.00;96.10
45619;DHT22;31343;47.520;19.144;2022-09-21T18:01:34;15.00;96.50
45619;DHT22;31343;47.520;19.144;2022-09-21T18:04:02;14.90;96.70
45619;DHT22;31343;47.520;19.144;2022-09-21T18:06:28;14.90;96.70
45619;DHT22;31343;47.520;19.144;2022-09-21T18:08:54;14.80;96.80